This is the latest recevied weather packets stored in our database for station/object N5ZP. If no packets are shown the sender has not sent any weather packets the latest 10 day(s).
| Time | Temp. | Humidity | Pressure | Rain* | Wind** | Luminosity | Snow |
|---|---|---|---|---|---|---|---|
| 1778019082 | 26.67° C | 59% | 1001.8 hPa | 0 mm | - | 132 W/m² | - |
| 1778018780 | 27.22° C | 58% | 1001.8 hPa | 0 mm | - | 211 W/m² | - |
| 1778018478 | 27.22° C | 59% | 1001.7 hPa | 0 mm | - | 227 W/m² | - |
| 1778018175 | 27.78° C | 61% | 1001.7 hPa | 0 mm | - | 222 W/m² | - |
| 1778017873 | 27.78° C | 60% | 1001.8 hPa | 0 mm | - | 200 W/m² | - |
| 1778017571 | 28.89° C | 58% | 1001.5 hPa | 0 mm | - | 204 W/m² | - |
| 1778017268 | 28.89° C | 54% | 1001.6 hPa | 0 mm | - | 237 W/m² | - |
| 1778016965 | 28.89° C | 53% | 1001.5 hPa | 0 mm | - | 350 W/m² | - |
| 1778016661 | 29.44° C | 49% | 1001.8 hPa | 0 mm | - | 206 W/m² | - |
| 1778016353 | 30° C | 49% | 1001.9 hPa | 0 mm | - | 224 W/m² | - |
| 1778016050 | 29.44° C | 50% | 1001.6 hPa | 0 mm | - | 425 W/m² | - |
| 1778015747 | 29.44° C | 48% | 1001.8 hPa | 0 mm | - | 458 W/m² | - |
| 1778015444 | 29.44° C | 46% | 1001.7 hPa | 0 mm | - | 288 W/m² | - |
| 1778015140 | 29.44° C | 47% | 1001.6 hPa | 0 mm | - | 415 W/m² | - |
| 1778014837 | 30° C | 45% | 1001.7 hPa | 0 mm | - | 329 W/m² | - |
| 1778014536 | 29.44° C | 45% | 1002.2 hPa | 0 mm | - | 591 W/m² | - |
| 1778014232 | 30.56° C | 43% | 1002 hPa | 0 mm | - | 584 W/m² | - |
| 1778013930 | 30.56° C | 45% | 1002 hPa | 0 mm | - | 711 W/m² | - |
| 1778013627 | 30.56° C | 45% | 1001.9 hPa | 0 mm | - | 725 W/m² | - |
| 1778013324 | 31.11° C | 44% | 1001.8 hPa | 0 mm | - | 714 W/m² | - |
| 1778013021 | 32.78° C | 41% | 1001.8 hPa | 0 mm | - | 286 W/m² | - |
| 1778012717 | 35° C | 45% | 1001.5 hPa | 0 mm | - | 685 W/m² | - |
| 1778012412 | 34.44° C | 45% | 1001.6 hPa | 0 mm | - | 680 W/m² | - |
| 1778012110 | 33.89° C | 48% | 1001.6 hPa | 0 mm | - | 762 W/m² | - |
| 1778011807 | 34.44° C | 49% | 1001.7 hPa | 0 mm | - | 621 W/m² | - |
* Rain latest hour (hover to see other rain measurements)
** Current wind speed in m/s (hover to see current wind gust speed)